createdAt,value
2023-12-17T00:00:56.452Z,0.32
2023-12-17T00:03:23.528Z,0.33
2023-12-17T00:05:50.468Z,0.36
2023-12-17T00:08:17.178Z,0.34
2023-12-17T00:10:44.081Z,0.28
2023-12-17T00:13:10.842Z,0.33
2023-12-17T00:15:37.534Z,0.37
2023-12-17T00:18:05.083Z,0.42
2023-12-17T00:20:31.849Z,0.45
2023-12-17T00:22:58.543Z,0.51
2023-12-17T00:25:25.208Z,0.54
2023-12-17T00:27:52.047Z,0.52
2023-12-17T00:30:18.842Z,0.51
2023-12-17T00:32:45.713Z,0.54
2023-12-17T00:35:12.731Z,0.56
2023-12-17T00:37:39.740Z,0.56
2023-12-17T00:40:07.271Z,0.55
2023-12-17T00:42:34.250Z,0.44
2023-12-17T00:45:01.074Z,0.38
2023-12-17T00:47:27.914Z,0.32
2023-12-17T00:49:54.727Z,0.32
2023-12-17T00:52:21.630Z,0.34
2023-12-17T00:54:48.427Z,0.04
2023-12-17T00:57:15.557Z,0.18
2023-12-17T00:59:42.414Z,0.17
2023-12-17T01:02:09.097Z,0.14
2023-12-17T01:04:35.796Z,0.14
2023-12-17T01:07:02.695Z,0.07
2023-12-17T01:09:29.482Z,0.08
2023-12-17T01:11:56.344Z,0.13
2023-12-17T01:14:23.110Z,0.07
2023-12-17T01:16:50.086Z,0.14
2023-12-17T01:19:16.817Z,0.19
2023-12-17T01:21:43.663Z,0.06
2023-12-17T01:24:11.719Z,-0.02
2023-12-17T01:26:38.606Z,-0.04
2023-12-17T01:29:05.399Z,-0.05
2023-12-17T01:31:32.083Z,-0.08
2023-12-17T01:33:59.126Z,-0.13
2023-12-17T01:36:26.116Z,-0.11
2023-12-17T01:38:53.016Z,-0.13
2023-12-17T01:41:19.741Z,-0.11
2023-12-17T01:43:46.845Z,-0.01
2023-12-17T01:46:15.523Z,-0.06
2023-12-17T01:48:43.280Z,0.01
2023-12-17T01:51:10.983Z,0.03
2023-12-17T01:53:38.073Z,-0.03
2023-12-17T01:56:06.570Z,-0.07
2023-12-17T01:58:33.332Z,-0.08
2023-12-17T02:01:00.562Z,-0.10
2023-12-17T02:03:27.538Z,-0.07
2023-12-17T02:05:54.430Z,-0.09
2023-12-17T02:08:21.243Z,-0.13
2023-12-17T02:10:47.948Z,-0.19
2023-12-17T02:13:14.641Z,-0.19
2023-12-17T02:15:41.382Z,-0.17
2023-12-17T02:18:08.271Z,-0.09
2023-12-17T02:20:35.378Z,-0.10
2023-12-17T02:23:05.441Z,-0.08
2023-12-17T02:25:32.318Z,-0.09
2023-12-17T02:27:59.602Z,-0.09
2023-12-17T02:30:26.591Z,-0.12
2023-12-17T02:32:53.601Z,-0.10
2023-12-17T02:35:21.047Z,-0.12
2023-12-17T02:37:47.707Z,-0.11
2023-12-17T02:40:14.580Z,-0.09
2023-12-17T02:42:41.375Z,-0.04
2023-12-17T02:45:09.085Z,-0.09
2023-12-17T02:47:36.043Z,-0.03
2023-12-17T02:50:03.133Z,-0.10
2023-12-17T02:52:29.988Z,-0.03
2023-12-17T02:54:56.646Z,0.03
2023-12-17T02:57:23.472Z,0.03
2023-12-17T02:59:50.228Z,0.03
2023-12-17T03:02:16.976Z,0.07
2023-12-17T03:04:43.753Z,0.05
2023-12-17T03:07:10.563Z,0.00
2023-12-17T03:09:37.326Z,-0.04
2023-12-17T03:12:04.890Z,0.02
2023-12-17T03:14:34.533Z,0.04
2023-12-17T03:17:01.497Z,0.02
2023-12-17T03:19:28.283Z,0.06
2023-12-17T03:21:55.016Z,-0.06
2023-12-17T03:24:21.779Z,-0.04
2023-12-17T03:26:48.751Z,-0.11
2023-12-17T03:29:15.611Z,-0.08
2023-12-17T03:31:42.323Z,-0.13
2023-12-17T03:34:09.129Z,-0.14
2023-12-17T03:36:36.007Z,-0.11
2023-12-17T03:39:02.961Z,-0.06
2023-12-17T03:41:30.051Z,-0.05
2023-12-17T03:43:58.316Z,-0.14
2023-12-17T03:46:27.337Z,-0.09
2023-12-17T03:48:54.551Z,-0.15
2023-12-17T03:51:21.889Z,-0.18
2023-12-17T03:53:49.936Z,-0.21
2023-12-17T03:56:17.599Z,-0.14
2023-12-17T03:58:44.437Z,-0.23
2023-12-17T04:01:11.450Z,-0.22
2023-12-17T04:03:38.512Z,-0.21
2023-12-17T04:06:07.222Z,-0.25
2023-12-17T04:08:34.193Z,-0.20
2023-12-17T04:11:00.836Z,-0.17
2023-12-17T04:13:27.686Z,-0.08
2023-12-17T04:15:54.338Z,-0.12
2023-12-17T04:18:21.522Z,-0.16
2023-12-17T04:20:48.282Z,-0.21
2023-12-17T04:23:15.651Z,-0.20
2023-12-17T04:25:42.346Z,-0.26
2023-12-17T04:28:09.167Z,-0.29
2023-12-17T04:30:35.874Z,-0.31
2023-12-17T04:33:02.987Z,-0.30
2023-12-17T04:35:29.787Z,-0.32
2023-12-17T04:37:56.513Z,-0.38
2023-12-17T04:40:23.248Z,-0.42
2023-12-17T04:42:50.029Z,-0.42
2023-12-17T04:45:16.689Z,-0.30
2023-12-17T04:47:43.941Z,-0.24
2023-12-17T04:50:10.971Z,-0.36
2023-12-17T04:52:38.253Z,-0.22
2023-12-17T04:55:05.503Z,-0.17
2023-12-17T04:57:32.243Z,-0.15
2023-12-17T04:59:59.145Z,-0.17
2023-12-17T05:02:25.875Z,-0.10
2023-12-17T05:04:52.670Z,-0.26
2023-12-17T05:07:19.644Z,-0.14
2023-12-17T05:09:46.397Z,-0.04
2023-12-17T05:12:13.159Z,-0.03
2023-12-17T05:14:39.963Z,-0.09
2023-12-17T05:17:06.672Z,-0.04
2023-12-17T05:19:33.727Z,-0.07
2023-12-17T05:22:00.601Z,-0.02
2023-12-17T05:24:27.356Z,-0.07
2023-12-17T05:26:54.115Z,-0.01
2023-12-17T05:29:20.861Z,0.06
2023-12-17T05:31:47.652Z,0.13
2023-12-17T05:34:14.620Z,-0.01
2023-12-17T05:36:41.466Z,-0.20
2023-12-17T05:39:08.230Z,-0.20
2023-12-17T05:41:35.194Z,-0.01
2023-12-17T05:44:01.870Z,-0.01
2023-12-17T05:46:28.530Z,0.07
2023-12-17T05:48:55.535Z,0.04
2023-12-17T05:51:22.520Z,-0.06
2023-12-17T05:53:49.263Z,-0.03
2023-12-17T05:56:16.069Z,-0.04
2023-12-17T05:58:43.735Z,0.01
2023-12-17T06:01:12.043Z,0.01
2023-12-17T06:03:39.600Z,0.12
2023-12-17T06:06:07.653Z,0.18
2023-12-17T06:08:34.784Z,0.09
2023-12-17T06:11:01.457Z,0.14
2023-12-17T06:13:28.138Z,0.21
2023-12-17T06:15:54.840Z,0.14
2023-12-17T06:18:21.708Z,0.17
2023-12-17T06:20:48.485Z,0.15
2023-12-17T06:23:15.361Z,0.09
2023-12-17T06:25:41.985Z,0.06
2023-12-17T06:28:08.644Z,0.18
2023-12-17T06:30:35.406Z,0.09
2023-12-17T06:33:02.384Z,0.13
2023-12-17T06:35:29.176Z,0.12
2023-12-17T06:37:55.961Z,0.08
2023-12-17T06:40:22.902Z,0.16
2023-12-17T06:42:49.698Z,0.18
2023-12-17T06:45:17.359Z,0.18
2023-12-17T06:47:46.099Z,0.06
2023-12-17T06:50:13.744Z,0.25
2023-12-17T06:52:54.519Z,0.22
2023-12-17T06:55:21.661Z,0.18
2023-12-17T06:57:48.298Z,0.26
2023-12-17T07:00:16.597Z,0.25
2023-12-17T07:02:43.713Z,0.18
2023-12-17T07:05:10.510Z,0.18
2023-12-17T07:07:37.298Z,0.26
2023-12-17T07:10:04.723Z,0.30
2023-12-17T07:12:31.415Z,0.34
2023-12-17T07:14:58.353Z,0.28
2023-12-17T07:17:25.202Z,0.28
2023-12-17T07:19:51.902Z,0.32
2023-12-17T07:22:18.903Z,0.34
2023-12-17T07:24:45.528Z,0.34
2023-12-17T07:27:12.234Z,0.41
2023-12-17T07:29:39.071Z,0.48
2023-12-17T07:32:05.928Z,0.54
2023-12-17T07:34:32.799Z,0.57
2023-12-17T07:37:01.694Z,0.61
2023-12-17T07:39:28.667Z,0.40
2023-12-17T07:41:55.551Z,0.51
2023-12-17T07:44:22.476Z,0.64
2023-12-17T07:46:49.209Z,0.70
2023-12-17T07:49:16.191Z,0.64
2023-12-17T07:51:43.637Z,0.43
2023-12-17T07:54:10.661Z,0.42
2023-12-17T07:56:41.620Z,0.56
2023-12-17T07:59:08.420Z,0.59
2023-12-17T08:01:35.593Z,0.53
2023-12-17T08:04:05.670Z,0.70
2023-12-17T08:06:35.099Z,0.70
2023-12-17T08:09:03.939Z,0.73
2023-12-17T08:11:30.871Z,0.78
2023-12-17T08:13:57.790Z,0.70
2023-12-17T08:16:26.287Z,0.78
2023-12-17T08:18:53.417Z,0.77
2023-12-17T08:21:20.473Z,0.81
2023-12-17T08:23:47.438Z,1.01
2023-12-17T08:26:14.273Z,1.07
2023-12-17T08:28:40.935Z,1.04
2023-12-17T08:31:11.053Z,0.94
2023-12-17T08:33:39.163Z,0.83
2023-12-17T08:36:06.484Z,0.91
2023-12-17T08:38:33.221Z,0.94
2023-12-17T08:40:59.970Z,0.86
2023-12-17T08:43:26.872Z,0.97
2023-12-17T08:45:53.581Z,1.08
2023-12-17T08:48:20.382Z,0.83
2023-12-17T08:50:47.278Z,0.80
2023-12-17T08:53:14.055Z,0.96
2023-12-17T08:55:40.977Z,0.92
2023-12-17T08:58:07.660Z,0.91
2023-12-17T09:00:34.689Z,0.90
2023-12-17T09:03:01.493Z,0.88
2023-12-17T09:05:28.267Z,0.92
2023-12-17T09:07:55.030Z,1.04
2023-12-17T09:10:21.717Z,0.90
2023-12-17T09:12:50.881Z,1.07
2023-12-17T09:15:17.950Z,1.12
2023-12-17T09:17:45.348Z,1.25
2023-12-17T09:20:15.336Z,0.95
2023-12-17T09:22:42.109Z,0.85
2023-12-17T09:25:09.412Z,1.09
2023-12-17T09:27:36.185Z,1.07
2023-12-17T09:30:06.062Z,1.03
2023-12-17T09:32:32.896Z,0.95
2023-12-17T09:34:59.684Z,0.97
2023-12-17T09:37:26.476Z,1.11
2023-12-17T09:39:55.812Z,0.94
2023-12-17T09:42:22.616Z,1.03
2023-12-17T09:44:49.628Z,0.96
2023-12-17T09:47:16.562Z,1.06
2023-12-17T09:49:45.717Z,1.11
2023-12-17T09:52:18.690Z,1.11
2023-12-17T09:54:45.460Z,0.89
2023-12-17T09:57:13.385Z,0.84
2023-12-17T09:59:41.201Z,1.12
2023-12-17T10:02:11.076Z,1.13
2023-12-17T10:04:37.807Z,1.07
2023-12-17T10:07:04.922Z,0.85
2023-12-17T10:09:34.156Z,1.14
2023-12-17T10:12:01.083Z,1.28
2023-12-17T10:14:27.952Z,1.08
2023-12-17T10:16:54.865Z,1.20
2023-12-17T10:19:22.735Z,1.07
2023-12-17T10:21:50.456Z,1.16
2023-12-17T10:24:19.861Z,1.25
2023-12-17T10:26:48.250Z,1.26
2023-12-17T10:29:19.888Z,1.38
2023-12-17T10:31:46.722Z,1.18
2023-12-17T10:34:19.626Z,1.49
2023-12-17T10:36:51.105Z,1.35
2023-12-17T10:39:20.120Z,1.28
2023-12-17T10:41:52.202Z,1.51
2023-12-17T10:44:21.443Z,1.40
2023-12-17T10:46:50.122Z,1.48
2023-12-17T10:49:20.786Z,1.52
2023-12-17T10:51:49.724Z,1.62
2023-12-17T10:54:16.458Z,1.45
2023-12-17T10:56:48.057Z,1.56
2023-12-17T10:59:27.106Z,1.52
2023-12-17T11:02:02.819Z,1.43
2023-12-17T11:04:29.911Z,1.65
2023-12-17T11:06:57.108Z,1.49
2023-12-17T11:09:25.528Z,1.58
2023-12-17T11:11:52.855Z,1.54
2023-12-17T11:14:23.276Z,1.38
2023-12-17T11:16:50.122Z,1.41
2023-12-17T11:19:21.053Z,1.52
2023-12-17T11:21:47.858Z,1.47
2023-12-17T11:24:14.725Z,1.47
2023-12-17T11:26:44.810Z,1.45
2023-12-17T11:29:33.277Z,1.66
2023-12-17T11:32:01.951Z,1.73
2023-12-17T11:34:31.561Z,1.67
2023-12-17T11:36:59.524Z,1.76
2023-12-17T11:39:28.645Z,1.66
2023-12-17T11:41:55.955Z,1.75
2023-12-17T11:44:23.658Z,1.69
2023-12-17T11:46:51.035Z,1.89
2023-12-17T11:49:25.157Z,1.80
2023-12-17T11:51:53.624Z,1.71
2023-12-17T11:54:21.085Z,1.75
2023-12-17T11:56:51.224Z,2.00
2023-12-17T11:59:38.024Z,1.94
2023-12-17T12:02:06.858Z,1.89
2023-12-17T12:04:41.391Z,2.01
2023-12-17T12:07:09.841Z,2.05
2023-12-17T12:09:36.860Z,1.78
2023-12-17T12:12:15.362Z,1.91
2023-12-17T12:14:42.795Z,1.94
2023-12-17T12:17:29.767Z,1.94
2023-12-17T12:19:56.730Z,1.90
2023-12-17T12:22:28.688Z,1.81
2023-12-17T12:24:58.637Z,1.84
2023-12-17T12:27:25.662Z,1.98
2023-12-17T12:29:57.401Z,2.11
2023-12-17T12:32:28.770Z,2.31
2023-12-17T12:34:56.100Z,2.38
2023-12-17T12:37:36.208Z,2.32
2023-12-17T12:40:10.605Z,2.15
2023-12-17T12:42:39.402Z,2.06
2023-12-17T12:45:07.063Z,2.20
2023-12-17T12:47:34.062Z,2.14
2023-12-17T12:50:06.768Z,2.05
2023-12-17T12:52:33.760Z,2.06
2023-12-17T12:55:00.655Z,2.28
2023-12-17T12:57:27.487Z,2.32
2023-12-17T12:59:54.362Z,2.23
2023-12-17T13:02:21.468Z,2.32
2023-12-17T13:04:48.193Z,2.34
2023-12-17T13:07:15.524Z,2.31
2023-12-17T13:09:42.800Z,2.27
2023-12-17T13:12:09.819Z,2.00
2023-12-17T13:14:36.630Z,2.09
2023-12-17T13:17:06.111Z,2.19
2023-12-17T13:19:33.195Z,2.15
2023-12-17T13:22:00.028Z,2.14
2023-12-17T13:24:27.539Z,2.20
2023-12-17T13:26:54.999Z,2.13
2023-12-17T13:29:21.748Z,2.22
2023-12-17T13:31:48.522Z,2.11
2023-12-17T13:34:15.607Z,1.94
2023-12-17T13:36:42.339Z,2.03
2023-12-17T13:39:09.292Z,2.00
2023-12-17T13:41:44.688Z,2.05
2023-12-17T13:44:15.168Z,1.88
2023-12-17T13:46:44.951Z,1.95
2023-12-17T13:49:14.407Z,2.06
2023-12-17T13:51:44.138Z,2.11
2023-12-17T13:54:10.899Z,1.96
2023-12-17T13:56:41.829Z,2.07
2023-12-17T13:59:11.952Z,2.14
2023-12-17T14:01:40.414Z,2.12
2023-12-17T14:04:09.776Z,2.15
2023-12-17T14:06:36.582Z,2.22
2023-12-17T14:09:03.536Z,2.10
2023-12-17T14:11:34.361Z,2.15
2023-12-17T14:14:01.812Z,2.08
2023-12-17T14:16:28.451Z,2.05
2023-12-17T14:18:56.467Z,2.06
2023-12-17T14:21:23.268Z,1.96
2023-12-17T14:23:50.053Z,1.92
2023-12-17T14:26:17.027Z,1.80
2023-12-17T14:28:47.948Z,1.80
2023-12-17T14:31:14.850Z,1.85
2023-12-17T14:33:41.946Z,1.85
2023-12-17T14:36:09.448Z,1.73
2023-12-17T14:38:39.341Z,1.56
2023-12-17T14:41:08.657Z,1.57
2023-12-17T14:43:35.349Z,1.60
2023-12-17T14:46:04.180Z,1.61
2023-12-17T14:48:31.326Z,1.53
2023-12-17T14:50:58.166Z,1.44
2023-12-17T14:53:25.044Z,1.42
2023-12-17T14:55:51.793Z,1.51
2023-12-17T14:58:18.601Z,1.55
2023-12-17T15:00:51.637Z,1.54
2023-12-17T15:03:18.920Z,1.52
2023-12-17T15:05:46.632Z,1.51
2023-12-17T15:08:16.393Z,1.62
2023-12-17T15:10:44.608Z,1.65
2023-12-17T15:13:11.866Z,1.64
2023-12-17T15:15:38.801Z,1.62
2023-12-17T15:18:05.814Z,1.72
2023-12-17T15:20:32.719Z,1.65
2023-12-17T15:22:59.606Z,1.73
2023-12-17T15:25:26.316Z,1.75
2023-12-17T15:27:53.284Z,1.74
2023-12-17T15:30:23.389Z,1.85
2023-12-17T15:32:50.177Z,1.82
2023-12-17T15:35:17.191Z,1.88
2023-12-17T15:37:44.137Z,1.84
2023-12-17T15:40:11.128Z,1.88
2023-12-17T15:42:37.970Z,1.92
2023-12-17T15:45:05.298Z,1.90
2023-12-17T15:47:34.467Z,1.89
2023-12-17T15:50:07.900Z,1.92
2023-12-17T15:52:35.017Z,1.91
2023-12-17T15:55:02.395Z,1.93
2023-12-17T15:57:29.471Z,1.90
2023-12-17T15:59:56.377Z,1.95
2023-12-17T16:02:23.328Z,1.96
2023-12-17T16:04:50.036Z,1.99
2023-12-17T16:07:17.033Z,1.99
2023-12-17T16:09:43.786Z,2.03
2023-12-17T16:12:10.781Z,2.04
2023-12-17T16:14:37.607Z,2.06
2023-12-17T16:17:04.660Z,2.01
2023-12-17T16:19:31.585Z,2.05
2023-12-17T16:22:00.748Z,2.05
2023-12-17T16:24:28.026Z,2.03
2023-12-17T16:26:55.395Z,1.99
2023-12-17T16:29:22.199Z,2.05
2023-12-17T16:31:48.881Z,2.09
2023-12-17T16:34:16.044Z,2.00
2023-12-17T16:36:46.158Z,2.05
2023-12-17T16:39:13.001Z,2.13
2023-12-17T16:41:44.021Z,2.11
2023-12-17T16:44:10.745Z,2.12
2023-12-17T16:46:40.596Z,2.06
2023-12-17T16:49:07.353Z,1.97
2023-12-17T16:51:34.122Z,1.93
2023-12-17T16:54:00.834Z,1.97
2023-12-17T16:56:27.866Z,1.94
2023-12-17T16:58:54.641Z,1.96
2023-12-17T17:01:24.470Z,1.88
2023-12-17T17:03:51.316Z,2.00
2023-12-17T17:06:18.135Z,1.98
2023-12-17T17:08:45.034Z,2.01
2023-12-17T17:11:13.695Z,1.99
2023-12-17T17:13:41.251Z,2.00
2023-12-17T17:16:08.495Z,1.99
2023-12-17T17:18:35.439Z,1.71
2023-12-17T17:21:02.350Z,1.69
2023-12-17T17:23:29.194Z,1.59
2023-12-17T17:25:57.580Z,1.61
2023-12-17T17:28:24.506Z,1.54
2023-12-17T17:30:51.408Z,1.53
2023-12-17T17:33:18.453Z,1.44
2023-12-17T17:35:45.632Z,1.44
2023-12-17T17:38:12.384Z,1.44
2023-12-17T17:40:39.250Z,1.43
2023-12-17T17:43:06.034Z,1.39
2023-12-17T17:45:32.840Z,1.28
2023-12-17T17:48:02.732Z,1.32
2023-12-17T17:50:29.640Z,1.33
2023-12-17T17:52:56.360Z,1.30
2023-12-17T17:55:23.138Z,1.28
2023-12-17T17:57:52.752Z,1.28
2023-12-17T18:00:19.954Z,1.22
2023-12-17T18:02:46.742Z,1.22
2023-12-17T18:05:14.908Z,1.18
2023-12-17T18:07:41.696Z,1.15
2023-12-17T18:10:11.469Z,1.16
2023-12-17T18:12:38.419Z,1.10
2023-12-17T18:15:05.915Z,1.12
2023-12-17T18:17:32.861Z,1.10
2023-12-17T18:20:03.766Z,0.99
2023-12-17T18:22:30.485Z,1.06
2023-12-17T18:25:01.946Z,1.16
2023-12-17T18:27:28.787Z,1.14
2023-12-17T18:29:55.941Z,1.14
2023-12-17T18:32:23.029Z,1.13
2023-12-17T18:34:49.792Z,1.18
2023-12-17T18:37:16.542Z,1.17
2023-12-17T18:39:43.312Z,1.09
2023-12-17T18:42:10.223Z,1.12
2023-12-17T18:44:37.015Z,1.04
2023-12-17T18:47:03.993Z,1.12
2023-12-17T18:49:31.040Z,1.11
2023-12-17T18:51:57.939Z,1.14
2023-12-17T18:54:24.636Z,1.02
2023-12-17T18:56:51.326Z,1.03
2023-12-17T18:59:18.094Z,1.03
2023-12-17T19:01:47.965Z,1.03
2023-12-17T19:04:17.963Z,1.03
2023-12-17T19:06:48.204Z,1.11
2023-12-17T19:09:14.943Z,1.05
2023-12-17T19:11:41.661Z,1.06
2023-12-17T19:14:08.451Z,1.11
2023-12-17T19:16:35.191Z,1.08
2023-12-17T19:19:02.091Z,1.02
2023-12-17T19:21:28.843Z,0.98
2023-12-17T19:23:55.660Z,0.98
2023-12-17T19:26:22.364Z,0.99
2023-12-17T19:28:49.093Z,0.97
2023-12-17T19:31:15.886Z,0.91
2023-12-17T19:33:43.495Z,0.96
2023-12-17T19:36:10.238Z,0.98
2023-12-17T19:38:36.934Z,1.04
2023-12-17T19:41:03.719Z,1.00
2023-12-17T19:43:30.436Z,1.06
2023-12-17T19:45:57.340Z,1.05
2023-12-17T19:48:26.557Z,0.95
2023-12-17T19:50:53.735Z,0.84
2023-12-17T19:53:20.375Z,0.95
2023-12-17T19:55:47.115Z,0.96
2023-12-17T19:58:14.217Z,0.95
2023-12-17T20:00:41.055Z,0.94
2023-12-17T20:03:07.899Z,0.91
2023-12-17T20:05:34.661Z,0.94
2023-12-17T20:08:01.417Z,1.01
2023-12-17T20:10:28.120Z,1.09
2023-12-17T20:12:54.958Z,1.11
2023-12-17T20:15:21.762Z,1.03
2023-12-17T20:17:48.626Z,1.09
2023-12-17T20:20:15.778Z,1.11
2023-12-17T20:22:45.443Z,1.05
2023-12-17T20:25:12.399Z,0.96
2023-12-17T20:27:40.269Z,1.00
2023-12-17T20:30:07.718Z,1.07
2023-12-17T20:32:34.884Z,1.05
2023-12-17T20:35:03.817Z,1.03
2023-12-17T20:37:30.694Z,0.97
2023-12-17T20:40:00.223Z,1.04
2023-12-17T20:42:27.104Z,0.98
2023-12-17T20:44:58.497Z,1.02
2023-12-17T20:47:37.263Z,1.09
2023-12-17T20:50:07.804Z,1.03
2023-12-17T20:52:34.551Z,1.04
2023-12-17T20:55:06.778Z,1.06
2023-12-17T20:57:34.452Z,1.10
2023-12-17T21:00:01.226Z,1.07
2023-12-17T21:02:27.973Z,0.98
2023-12-17T21:04:54.715Z,1.04
2023-12-17T21:07:21.447Z,0.99
2023-12-17T21:09:48.347Z,1.03
2023-12-17T21:12:15.176Z,0.89
2023-12-17T21:14:41.831Z,0.84
2023-12-17T21:17:08.665Z,0.83
2023-12-17T21:19:35.985Z,0.82
2023-12-17T21:22:02.955Z,0.88
2023-12-17T21:24:29.791Z,0.85
2023-12-17T21:26:58.308Z,0.92
2023-12-17T21:29:25.393Z,0.89
2023-12-17T21:31:52.344Z,0.84
2023-12-17T21:34:19.080Z,0.85
2023-12-17T21:36:45.923Z,0.75
2023-12-17T21:39:12.670Z,0.85
2023-12-17T21:41:39.460Z,0.92
2023-12-17T21:44:06.243Z,0.89
2023-12-17T21:46:32.945Z,0.84
2023-12-17T21:48:59.881Z,0.78
2023-12-17T21:51:26.926Z,0.79
2023-12-17T21:53:53.697Z,0.82
2023-12-17T21:56:20.413Z,0.81
2023-12-17T21:58:47.078Z,0.82
2023-12-17T22:01:14.006Z,0.81
2023-12-17T22:03:40.793Z,0.80
2023-12-17T22:06:07.749Z,0.75
2023-12-17T22:08:34.692Z,0.78
2023-12-17T22:11:03.000Z,0.71
2023-12-17T22:13:29.771Z,0.59
2023-12-17T22:15:56.455Z,0.60
2023-12-17T22:18:23.290Z,0.65
2023-12-17T22:20:50.025Z,0.64
2023-12-17T22:23:16.824Z,0.64
2023-12-17T22:25:43.765Z,0.65
2023-12-17T22:28:10.687Z,0.59
2023-12-17T22:30:37.614Z,0.62
2023-12-17T22:33:04.829Z,0.61
2023-12-17T22:35:31.633Z,0.49
2023-12-17T22:37:58.307Z,0.50
2023-12-17T22:40:25.035Z,0.52
2023-12-17T22:42:51.718Z,0.51
2023-12-17T22:45:18.495Z,0.50
2023-12-17T22:47:45.690Z,0.45
2023-12-17T22:50:13.086Z,0.44
2023-12-17T22:52:39.774Z,0.41
2023-12-17T22:55:07.677Z,0.37
2023-12-17T22:57:34.420Z,0.39
2023-12-17T23:00:01.168Z,0.37
2023-12-17T23:02:27.856Z,0.48
2023-12-17T23:04:54.658Z,0.33
2023-12-17T23:07:22.923Z,0.45
2023-12-17T23:09:49.671Z,0.33
2023-12-17T23:12:16.687Z,0.35
2023-12-17T23:14:43.560Z,0.34
2023-12-17T23:17:10.383Z,0.36
2023-12-17T23:19:37.138Z,0.31
2023-12-17T23:22:05.052Z,0.37
2023-12-17T23:24:34.840Z,0.40
2023-12-17T23:27:01.700Z,0.37
2023-12-17T23:29:29.437Z,0.41
2023-12-17T23:31:56.093Z,0.37
2023-12-17T23:34:23.088Z,0.37
2023-12-17T23:36:50.117Z,0.29
2023-12-17T23:39:16.948Z,0.40
2023-12-17T23:41:43.747Z,0.36
2023-12-17T23:44:10.537Z,0.33
2023-12-17T23:46:37.246Z,0.33
2023-12-17T23:49:04.092Z,0.23
2023-12-17T23:51:30.878Z,0.26
2023-12-17T23:53:57.708Z,0.34
2023-12-17T23:56:24.601Z,0.37
2023-12-17T23:58:51.387Z,0.38
